Julien Morel

Olheiro - Monaco
20 Jan 2028
Quinta-feira
Processo

Personalidade

Adaptabilidade (15) Ambição (14) Controvérsia (8) Lealdade (15) Pressão (17) Profissionalismo (4) Espírito Esportivo (3) Temperamento (10)

Perfil

Estilo de Treinamento Democrático
Licença Continental C
Determinação 10
Gestão de Pessoas 10
Motivação 12
Disciplina 10
Satisfação no Trabalho
100%
Fadiga
0%
Função Olheiro
Salário 87.5K p/s
Contrato 14.03.2028

Desempenho

Comportamento Bom
Eficácia do Treinamento
59%
Desenvolvimento do Jogador
70%
Prevenção de Lesões
80%
Implementação Tática
45%

Eventos Recentes

Participando de desenvolvimento profissional agora
Participou de uma reunião de recrutamento agora
Recomendou um alvo de transferência agora
Recomendou um alvo de transferência agora
Recomendou um alvo de transferência agora
Recomendou um alvo de transferência agora
Negociação de contrato iniciada agora
Participando de desenvolvimento profissional agora

Monitorando agora

95
Jogador Clube Status Habilidade Confiança Observado Última observação Último voto
Ferran Torres Paris Saint-Germain Relatório pronto 166 / 175 83% 1 17.01.2028 -
Reece James Chelsea Ativo 180 / 177 40% 1 10.01.2028 -
Ryan Gravenberch Liverpool Ativo 163 / 168 40% 1 10.01.2028 -
Rémi Lemoine Chamois Niortais Ativo 159 / 166 83% 1 01.01.2028 Aprovar
Hugo Magnetti Stade Brestois Perdido 141 / 135 40% 1 01.01.2028 -
Jean-Clair Todibo West Ham United Perdido 147 / 148 40% 1 01.01.2028 -
Alexsandro Ribeiro LOSC Lille Perdido 150 / 157 40% 1 01.01.2028 -
Bryan Mbeumo Manchester United Ativo 162 / 161 40% 6 31.12.2027 -
Brennan Johnson Stoke City Ativo 153 / 144 40% 8 31.12.2027 -
Hugo Ekitiké Liverpool Ativo 172 / 170 40% 11 31.12.2027 -
Assane Diao Lazio Ativo 155 / 155 40% 5 27.12.2027 -
Paulinho Palmeiras Ativo 140 / 153 40% 2 27.12.2027 -
Mohammed Kudus Tottenham Ativo 161 / 162 40% 8 19.12.2027 -
Loïs Openda Juventus Ativo 154 / 160 40% 3 19.12.2027 -
Iliman N'Diaye Everton Ativo 165 / 158 40% 8 17.12.2027 -
Viktor Gyökeres Arsenal Perdido 164 / 161 40% 1 17.12.2027 -
Jonathan David Juventus Ativo 159 / 160 40% 3 16.12.2027 -
Gabriel Martinelli Brighton Ativo 168 / 170 40% 9 14.12.2027 -
Morgan Rogers Chelsea Ativo 163 / 159 40% 12 14.12.2027 -
Bradley Barcola Liverpool Ativo 170 / 163 40% 7 14.12.2027 -
Dango Ouattara Brentford Ativo 154 / 149 40% 9 12.12.2027 -
Darwin Núñez Al-Hilal Ativo 158 / 145 40% 2 12.12.2027 -
Evanilson Liverpool Ativo 157 / 158 40% 4 11.12.2027 -
Liam Delap Nottingham Forest Ativo 155 / 148 40% 4 05.12.2027 -
Christian Pulisic Olympique de Marseille Ativo 168 / 170 40% 4 02.12.2027 -
Fábio Carvalho Sheffield Wednesday Ativo 146 / 144 40% 2 02.12.2027 -
Igor Jesus Newcastle United Ativo 149 / 144 40% 4 30.11.2027 -
Romelu Witsel Liverpool Ativo 172 / 170 40% 5 28.11.2027 -
Thierno Barry Norwich City Ativo 147 / 141 40% 1 20.11.2027 -
Ez Abde Girona Perdido 161 / 157 40% 4 10.11.2027 -
João Pedro Chelsea Ativo 161 / 160 40% 12 09.11.2027 -
Kenan Yıldız Juventus Ativo 166 / 167 40% 1 08.11.2027 -
Alexander Isak Liverpool Ativo 177 / 171 40% 6 03.11.2027 -
Matheus Cunha Manchester United Ativo 166 / 159 40% 3 03.11.2027 -
Thiago Brentford Perdido 153 / 145 40% 3 30.10.2027 -
Kevin Schade Brentford Ativo 155 / 153 40% 4 21.10.2027 -
Vinícius Júnior Arsenal Ativo 178 / 180 40% 6 19.10.2027 -
Lorenzo Lucca Napoli Ativo 150 / 143 40% 2 15.10.2027 -
Georginio Rutter Brighton Ativo 154 / 152 40% 8 11.10.2027 -
Noah Okafor Leeds United Ativo 143 / 150 40% 1 04.10.2027 -
Federico Chiesa Liverpool Ativo 158 / 160 40% 1 21.09.2027 -
Evann Guessand Aston Villa Ativo 152 / 152 40% 3 01.09.2027 -
Nicolas Jackson Aston Villa Ativo 151 / 149 40% 2 27.08.2027 -
Amine Gouiri Olympique de Marseille Ativo 143 / 147 40% 1 27.08.2027 -
Christian Tielemans KV Oostende Ativo 145 / 148 40% 1 23.08.2027 -
Ismaël Bennacer Malmo FF Ativo 155 / 138 40% 1 23.08.2027 -
Benjamin Šeško Arsenal Ativo 154 / 162 40% 1 21.08.2027 -
Donyell Malen AS Roma Ativo 157 / 151 40% 1 17.08.2027 -
Kai Havertz Arsenal Ativo 168 / 168 40% 1 16.08.2027 -
Nicolò Zaniolo Udinese Ativo 146 / 149 40% 1 16.08.2027 -
Davide Bartesaghi AC Milan Ativo 134 / 135 40% 1 06.08.2027 -
Jorrel Hato Chelsea Ativo 154 / 156 40% 1 06.08.2027 -
Matías Gómez Granada Ativo 116 / 128 40% 1 06.08.2027 -
Tammy Abraham Aston Villa Ativo 144 / 145 40% 1 31.07.2027 -
Nicolás González Juventus Ativo 151 / 156 40% 3 30.07.2027 -
Santiago Castro AS Roma Ativo 153 / 150 40% 3 30.07.2027 -
Steven Bergwijn Al-Ittihad Ativo 149 / 140 40% 2 29.07.2027 -
Joshua Zirkzee Manchester United Ativo 152 / 144 40% 2 28.07.2027 -
Christopher Nkunku AC Milan Ativo 154 / 161 40% 1 28.07.2027 -
Gonzalo Fulham Ativo 146 / 147 40% 1 23.07.2027 -
Alexey Batrakov Fenerbahce Ativo 150 / 158 40% 1 21.07.2027 -
Ayase Ueda LOSC Lille Ativo 151 / 134 40% 1 21.07.2027 -
Nikola Vlašić Torino Ativo 145 / 145 40% 2 20.07.2027 -
Joaquín Panichelli Le Havre AC Perdido 148 / 143 40% 5 16.07.2027 -
Leon Grgić Sturm Graz Ativo 123 / 137 40% 1 15.07.2027 -
Taty Castellanos West Ham United Ativo 144 / 150 40% 1 12.07.2027 -
Dušan Vlahović Juventus Ativo 158 / 160 40% 4 21.06.2027 -
Tyler Adams Bournemouth Ativo 156 / 149 40% 2 14.06.2027 -
Musa Al-Tamari Stade Rennais Ativo 138 / 132 79% 1 14.06.2027 Aprovar
Noussair Mazraoui Manchester United Ativo 151 / 154 40% 1 14.06.2027 -
Richard Gonzalez Chamois Niortais Ativo 133 / 130 79% 1 03.06.2027 Aprovar
Mees Rijks Bristol Rovers Ativo 113 / 109 40% 1 29.05.2027 -
Adriano Bertaccini Anderlecht Ativo 132 / 130 40% 4 28.05.2027 -
Will Lankshear Middlesbrough Ativo 128 / 132 40% 1 28.05.2027 -
Nicolò Tresoldi Club Brugge Ativo 136 / 134 40% 7 26.05.2027 -
Giacomo Raspadori Atalanta Ativo 145 / 146 40% 7 24.05.2027 -
Morgan Whittaker Middlesbrough Ativo 135 / 134 40% 5 22.05.2027 -
Adnan Courtois KV Oostende Ativo 142 / 135 40% 5 19.05.2027 -
Tom Cannon Sheffield United Ativo 131 / 137 40% 2 18.05.2027 -
Aune Heggebø West Bromwich Albion Ativo 131 / 130 40% 1 12.05.2027 -
Mohamed-Ali Cho Hull City Ativo 130 / 132 40% 1 09.05.2027 -
Yousef Salech Cardiff City Ativo 126 / 132 40% 4 03.05.2027 -
Luis Vázquez Birmingham Ativo 130 / 123 40% 4 29.04.2027 -
Ilyas Ansah Hull City Ativo 131 / 131 40% 1 11.04.2027 -
Rafiu Durosinmi Racing Genk Ativo 137 / 135 40% 2 02.04.2027 -
Robert Mizo Ashanti Gold Ativo 101 / 94 40% 1 02.04.2027 -
Rayan Cherki Manchester City Ativo 170 / 172 40% 1 01.04.2027 -
Myron van Brederode KV Mechelen Ativo 121 / 126 40% 1 31.03.2027 -
Antoine Semenyo Manchester City Ativo 162 / 161 40% 3 17.03.2027 -
Hicham Mahou Moreirense Ativo 115 / 112 40% 1 11.03.2027 -
Ozziel Herrera Tigres Ativo 138 / 133 40% 1 11.03.2027 -
Carlos Vicente Birmingham Ativo 139 / 134 40% 1 31.12.2026 -
Enzo Fernández Manchester City Ativo 171 / 165 40% 1 31.12.2026 -
Pathé Mboup Stade Brestois Ativo 117 / 133 79% 1 31.08.2026 Aprovar
Mario Stroeykens Anderlecht Ativo 121 / 122 40% 1 24.08.2026 -